createdAt,value
2023-11-10T00:00:36.495Z,19.52
2023-11-10T00:01:32.001Z,19.53
2023-11-10T00:02:27.598Z,19.45
2023-11-10T00:03:23.329Z,19.41
2023-11-10T00:04:18.845Z,19.45
2023-11-10T00:05:14.596Z,19.53
2023-11-10T00:06:09.770Z,19.47
2023-11-10T00:07:05.268Z,19.44
2023-11-10T00:08:00.870Z,19.52
2023-11-10T00:08:56.425Z,19.50
2023-11-10T00:09:51.960Z,19.44
2023-11-10T00:10:47.499Z,19.45
2023-11-10T00:11:43.049Z,19.50
2023-11-10T00:12:38.606Z,19.44
2023-11-10T00:13:35.568Z,19.42
2023-11-10T00:14:37.784Z,19.42
2023-11-10T00:15:14.414Z,19.39
2023-11-10T00:16:09.967Z,19.44
2023-11-10T00:17:05.466Z,19.49
2023-11-10T00:18:01.045Z,19.49
2023-11-10T00:18:56.576Z,19.44
2023-11-10T00:19:41.237Z,19.44
2023-11-10T00:20:36.759Z,19.50
2023-11-10T00:21:32.315Z,19.45
2023-11-10T00:22:27.846Z,19.44
2023-11-10T00:23:23.394Z,19.41
2023-11-10T00:24:18.994Z,19.42
2023-11-10T00:25:14.524Z,19.44
2023-11-10T00:25:59.188Z,19.45
2023-11-10T00:26:54.732Z,19.45
2023-11-10T00:27:50.288Z,19.41
2023-11-10T00:28:34.950Z,19.53
2023-11-10T00:29:30.561Z,19.45
2023-11-10T00:30:26.113Z,19.45
2023-11-10T00:31:21.627Z,19.47
2023-11-10T00:32:17.153Z,19.47
2023-11-10T00:34:08.323Z,19.39
2023-11-10T00:35:03.853Z,19.52
2023-11-10T00:35:59.383Z,19.52
2023-11-10T00:36:54.929Z,19.50
2023-11-10T00:37:50.472Z,19.47
2023-11-10T00:38:46.049Z,19.50
2023-11-10T00:39:41.602Z,19.49
2023-11-10T00:40:37.112Z,19.47
2023-11-10T00:41:32.651Z,19.50
2023-11-10T00:42:28.210Z,19.49
2023-11-10T00:43:23.718Z,19.45
2023-11-10T00:44:19.264Z,19.42
2023-11-10T00:45:14.840Z,19.47
2023-11-10T00:46:10.394Z,19.41
2023-11-10T00:47:05.891Z,19.42
2023-11-10T00:48:01.490Z,19.45
2023-11-10T00:48:57.050Z,19.50
2023-11-10T00:49:52.583Z,19.45
2023-11-10T00:50:48.143Z,19.45
2023-11-10T00:51:32.896Z,19.49
2023-11-10T00:52:28.336Z,19.53
2023-11-10T00:53:23.898Z,19.45
2023-11-10T00:54:19.465Z,19.49
2023-11-10T00:55:22.198Z,19.47
2023-11-10T00:56:17.746Z,19.49
2023-11-10T00:57:13.323Z,19.49
2023-11-10T00:58:08.865Z,19.42
2023-11-10T00:59:04.447Z,19.44
2023-11-10T00:59:49.121Z,19.45
2023-11-10T01:00:33.806Z,19.49
2023-11-10T01:01:29.389Z,19.45
2023-11-10T01:02:24.895Z,19.41
2023-11-10T01:03:20.568Z,19.45
2023-11-10T01:04:16.150Z,19.44
2023-11-10T01:05:11.552Z,19.47
2023-11-10T01:06:07.238Z,19.44
2023-11-10T01:07:02.751Z,19.41
2023-11-10T01:07:58.247Z,19.49
2023-11-10T01:08:53.781Z,19.44
2023-11-10T01:09:49.323Z,19.41
2023-11-10T01:10:44.889Z,19.47
2023-11-10T01:11:40.444Z,19.39
2023-11-10T01:12:36.128Z,19.41
2023-11-10T01:13:31.604Z,19.47
2023-11-10T01:14:27.170Z,19.41
2023-11-10T01:15:22.730Z,19.45
2023-11-10T01:16:18.273Z,19.41
2023-11-10T01:17:13.841Z,19.47
2023-11-10T01:18:09.456Z,19.42
2023-11-10T01:19:04.929Z,19.47
2023-11-10T01:20:00.465Z,19.52
2023-11-10T01:20:56.006Z,19.42
2023-11-10T01:21:51.607Z,19.42
2023-11-10T01:22:47.148Z,19.44
2023-11-10T01:23:42.679Z,19.45
2023-11-10T01:24:38.237Z,19.45
2023-11-10T01:25:33.763Z,19.42
2023-11-10T01:26:29.413Z,19.42
2023-11-10T01:27:14.057Z,19.45
2023-11-10T01:28:09.586Z,19.37
2023-11-10T01:28:54.259Z,19.44
2023-11-10T01:29:49.800Z,19.50
2023-11-10T01:30:45.405Z,19.45
2023-11-10T01:31:40.932Z,19.44
2023-11-10T01:32:36.576Z,19.41
2023-11-10T01:33:32.130Z,19.47
2023-11-10T01:34:27.627Z,19.47
2023-11-10T01:35:23.112Z,19.45
2023-11-10T01:36:18.690Z,19.42
2023-11-10T01:37:14.250Z,19.41
2023-11-10T01:38:09.862Z,19.41
2023-11-10T01:39:05.361Z,19.39
2023-11-10T01:40:00.908Z,19.31
2023-11-10T01:40:56.436Z,19.38
2023-11-10T01:41:51.992Z,19.37
2023-11-10T01:42:47.587Z,19.39
2023-11-10T01:43:43.076Z,19.42
2023-11-10T01:44:38.624Z,19.45
2023-11-10T01:45:34.168Z,19.39
2023-11-10T01:46:18.996Z,19.39
2023-11-10T01:47:14.452Z,19.45
2023-11-10T01:48:10.019Z,19.42
2023-11-10T01:49:05.578Z,19.42
2023-11-10T01:50:01.034Z,19.41
2023-11-10T01:50:56.587Z,19.35
2023-11-10T01:51:52.175Z,19.45
2023-11-10T01:52:36.807Z,19.45
2023-11-10T01:53:32.380Z,19.37
2023-11-10T01:54:27.951Z,19.42
2023-11-10T01:55:23.502Z,19.45
2023-11-10T01:56:19.657Z,19.44
2023-11-10T01:57:15.854Z,19.42
2023-11-10T01:58:11.345Z,19.42
2023-11-10T01:59:07.471Z,19.38
2023-11-10T01:59:52.161Z,19.41
2023-11-10T02:00:47.762Z,19.44
2023-11-10T02:01:43.288Z,19.45
2023-11-10T02:02:28.120Z,19.41
2023-11-10T02:03:23.658Z,19.39
2023-11-10T02:04:19.256Z,19.41
2023-11-10T02:05:14.620Z,19.42
2023-11-10T02:06:10.183Z,19.35
2023-11-10T02:07:05.715Z,19.38
2023-11-10T02:08:01.275Z,19.47
2023-11-10T02:08:56.821Z,19.42
2023-11-10T02:09:52.414Z,19.42
2023-11-10T02:10:47.960Z,19.45
2023-11-10T02:11:43.497Z,19.42
2023-11-10T02:12:39.072Z,19.38
2023-11-10T02:13:34.592Z,19.38
2023-11-10T02:14:30.204Z,19.27
2023-11-10T02:15:25.840Z,19.44
2023-11-10T02:16:21.258Z,19.45
2023-11-10T02:17:16.824Z,19.42
2023-11-10T02:18:12.418Z,19.42
2023-11-10T02:19:07.930Z,19.45
2023-11-10T02:20:03.516Z,19.42
2023-11-10T02:20:59.057Z,19.42
2023-11-10T02:21:54.599Z,19.44
2023-11-10T02:22:50.163Z,19.47
2023-11-10T02:23:45.700Z,19.44
2023-11-10T02:24:41.281Z,19.53
2023-11-10T02:25:36.818Z,19.53
2023-11-10T02:26:32.385Z,19.49
2023-11-10T02:27:27.993Z,19.45
2023-11-10T02:28:23.555Z,19.50
2023-11-10T02:29:19.091Z,19.62
2023-11-10T02:30:14.694Z,19.52
2023-11-10T02:31:10.223Z,19.45
2023-11-10T02:32:06.391Z,19.47
2023-11-10T02:33:02.032Z,19.52
2023-11-10T02:33:57.493Z,19.54
2023-11-10T02:34:53.065Z,19.60
2023-11-10T02:35:48.609Z,19.44
2023-11-10T02:36:44.210Z,19.52
2023-11-10T02:37:39.736Z,19.47
2023-11-10T02:38:35.227Z,19.54
2023-11-10T02:39:30.794Z,19.52
2023-11-10T02:40:26.335Z,19.47
2023-11-10T02:41:21.871Z,19.45
2023-11-10T02:42:17.449Z,19.47
2023-11-10T02:43:12.966Z,19.53
2023-11-10T02:44:08.532Z,19.47
2023-11-10T02:44:53.206Z,19.45
2023-11-10T02:45:48.818Z,19.50
2023-11-10T02:46:44.299Z,19.44
2023-11-10T02:47:39.922Z,19.53
2023-11-10T02:48:35.442Z,19.49
2023-11-10T02:49:30.959Z,19.44
2023-11-10T02:50:26.556Z,19.49
2023-11-10T02:51:22.096Z,19.47
2023-11-10T02:52:17.596Z,19.44
2023-11-10T02:53:13.179Z,19.47
2023-11-10T02:54:08.732Z,19.44
2023-11-10T02:55:04.297Z,19.44
2023-11-10T02:55:59.834Z,19.52
2023-11-10T02:56:55.387Z,19.49
2023-11-10T02:57:50.954Z,19.50
2023-11-10T02:58:46.478Z,19.44
2023-11-10T02:59:42.029Z,19.44
2023-11-10T03:00:37.596Z,19.56
2023-11-10T03:01:33.149Z,19.42
2023-11-10T03:02:29.286Z,19.53
2023-11-10T03:03:14.046Z,19.50
2023-11-10T03:04:09.535Z,19.44
2023-11-10T03:05:05.054Z,19.42
2023-11-10T03:06:00.602Z,19.45
2023-11-10T03:06:56.163Z,19.45
2023-11-10T03:07:51.725Z,19.47
2023-11-10T03:08:47.251Z,19.44
2023-11-10T03:09:42.898Z,19.49
2023-11-10T03:10:38.332Z,19.49
2023-11-10T03:11:33.865Z,19.49
2023-11-10T03:12:29.449Z,19.47
2023-11-10T03:13:24.961Z,19.45
2023-11-10T03:14:20.495Z,19.49
2023-11-10T03:15:16.114Z,19.52
2023-11-10T03:16:11.601Z,19.49
2023-11-10T03:17:07.424Z,19.49
2023-11-10T03:18:02.789Z,19.50
2023-11-10T03:18:58.294Z,19.49
2023-11-10T03:19:54.372Z,19.50
2023-11-10T03:20:49.935Z,19.41
2023-11-10T03:21:45.617Z,19.44
2023-11-10T03:22:41.093Z,19.47
2023-11-10T03:23:36.637Z,19.44
2023-11-10T03:24:32.220Z,19.50
2023-11-10T03:25:27.730Z,19.42
2023-11-10T03:26:23.289Z,19.42
2023-11-10T03:27:18.879Z,19.42
2023-11-10T03:28:14.378Z,19.39
2023-11-10T03:29:09.935Z,19.39
2023-11-10T03:30:05.482Z,19.41
2023-11-10T03:31:01.072Z,19.42
2023-11-10T03:31:56.614Z,19.41
2023-11-10T03:32:52.194Z,19.44
2023-11-10T03:33:47.772Z,19.41
2023-11-10T03:34:43.258Z,19.47
2023-11-10T03:35:38.800Z,19.49
2023-11-10T03:36:34.388Z,19.45
2023-11-10T03:37:29.931Z,19.44
2023-11-10T03:38:25.490Z,19.45
2023-11-10T03:39:21.061Z,19.42
2023-11-10T03:40:17.204Z,19.42
2023-11-10T03:41:12.750Z,19.44
2023-11-10T03:42:08.295Z,19.44
2023-11-10T03:43:03.859Z,19.35
2023-11-10T03:43:59.425Z,19.42
2023-11-10T03:44:54.976Z,19.42
2023-11-10T03:45:50.665Z,19.39
2023-11-10T03:46:35.271Z,19.45
2023-11-10T03:47:30.800Z,19.42
2023-11-10T03:48:26.413Z,19.42
2023-11-10T03:49:21.893Z,19.45
2023-11-10T03:50:17.449Z,19.45
2023-11-10T03:51:13.251Z,19.39
2023-11-10T03:52:08.538Z,19.32
2023-11-10T03:53:04.130Z,19.38
2023-11-10T03:53:59.662Z,19.37
2023-11-10T03:54:55.211Z,19.41
2023-11-10T03:55:50.755Z,19.38
2023-11-10T03:56:46.316Z,19.39
2023-11-10T03:57:41.937Z,19.38
2023-11-10T03:58:37.470Z,19.41
2023-11-10T03:59:33.038Z,19.42
2023-11-10T04:00:39.119Z,19.38
2023-11-10T04:01:24.245Z,19.37
2023-11-10T04:02:19.714Z,19.42
2023-11-10T04:03:15.373Z,19.44
2023-11-10T04:04:10.922Z,19.35
2023-11-10T04:05:06.377Z,19.39
2023-11-10T04:06:01.961Z,19.39
2023-11-10T04:06:57.585Z,19.39
2023-11-10T04:07:53.113Z,19.39
2023-11-10T04:08:48.652Z,19.39
2023-11-10T04:09:44.221Z,19.38
2023-11-10T04:10:39.745Z,19.37
2023-11-10T04:11:35.290Z,19.37
2023-11-10T04:12:30.850Z,19.39
2023-11-10T04:13:26.383Z,19.39
2023-11-10T04:14:21.957Z,19.26
2023-11-10T04:15:17.522Z,19.35
2023-11-10T04:16:13.111Z,19.22
2023-11-10T04:17:08.593Z,19.26
2023-11-10T04:18:04.201Z,19.30
2023-11-10T04:18:59.689Z,19.38
2023-11-10T04:19:55.243Z,19.38
2023-11-10T04:20:51.380Z,19.35
2023-11-10T04:21:46.971Z,19.27
2023-11-10T04:22:42.496Z,19.26
2023-11-10T04:23:38.057Z,19.31
2023-11-10T04:24:33.639Z,19.26
2023-11-10T04:25:29.170Z,19.30
2023-11-10T04:26:24.713Z,19.31
2023-11-10T04:27:20.271Z,19.31
2023-11-10T04:28:15.794Z,19.30
2023-11-10T04:29:11.928Z,19.35
2023-11-10T04:30:07.508Z,19.26
2023-11-10T04:31:03.270Z,19.27
2023-11-10T04:31:58.647Z,19.31
2023-11-10T04:32:54.167Z,19.26
2023-11-10T04:33:49.780Z,19.37
2023-11-10T04:34:45.254Z,19.30
2023-11-10T04:35:40.802Z,19.26
2023-11-10T04:36:36.419Z,19.31
2023-11-10T04:37:31.950Z,19.26
2023-11-10T04:38:27.504Z,19.26
2023-11-10T04:39:23.067Z,19.27
2023-11-10T04:40:18.630Z,19.30
2023-11-10T04:41:14.159Z,19.32
2023-11-10T04:42:09.699Z,19.23
2023-11-10T04:43:05.262Z,19.30
2023-11-10T04:44:00.796Z,19.27
2023-11-10T04:44:56.348Z,19.31
2023-11-10T04:45:51.918Z,19.24
2023-11-10T04:46:47.461Z,19.32
2023-11-10T04:47:43.123Z,19.30
2023-11-10T04:48:38.631Z,19.30
2023-11-10T04:49:34.166Z,19.34
2023-11-10T04:50:29.691Z,19.27
2023-11-10T04:51:25.242Z,19.30
2023-11-10T04:52:20.783Z,19.30
2023-11-10T04:53:16.343Z,19.30
2023-11-10T04:54:11.893Z,19.26
2023-11-10T04:55:07.437Z,19.32
2023-11-10T04:56:03.030Z,19.31
2023-11-10T04:56:58.532Z,19.24
2023-11-10T04:57:54.161Z,19.23
2023-11-10T04:58:49.652Z,19.27
2023-11-10T04:59:45.198Z,19.27
2023-11-10T05:00:40.834Z,19.31
2023-11-10T05:01:36.419Z,19.32
2023-11-10T05:02:32.545Z,19.30
2023-11-10T05:03:28.132Z,19.17
2023-11-10T05:04:23.770Z,19.16
2023-11-10T05:05:19.204Z,19.30
2023-11-10T05:06:14.789Z,19.31
2023-11-10T05:07:10.306Z,19.27
2023-11-10T05:08:05.864Z,19.34
2023-11-10T05:09:01.414Z,19.32
2023-11-10T05:09:56.960Z,19.38
2023-11-10T05:10:52.535Z,19.24
2023-11-10T05:11:48.148Z,19.39
2023-11-10T05:12:43.693Z,19.42
2023-11-10T05:13:39.231Z,19.39
2023-11-10T05:14:34.773Z,19.39
2023-11-10T05:15:30.354Z,19.45
2023-11-10T05:16:25.857Z,19.49
2023-11-10T05:17:21.446Z,19.49
2023-11-10T05:18:58.253Z,19.47
2023-11-10T05:19:12.549Z,19.49
2023-11-10T05:20:08.680Z,19.42
2023-11-10T05:20:53.328Z,19.47
2023-11-10T05:21:48.910Z,19.49
2023-11-10T05:22:44.447Z,19.57
2023-11-10T05:23:39.984Z,19.53
2023-11-10T05:24:35.578Z,19.53
2023-11-10T05:25:31.090Z,19.41
2023-11-10T05:26:26.638Z,19.42
2023-11-10T05:27:22.256Z,19.49
2023-11-10T05:28:17.764Z,19.56
2023-11-10T05:29:13.308Z,19.45
2023-11-10T05:30:08.852Z,19.52
2023-11-10T05:31:04.396Z,19.62
2023-11-10T05:31:59.992Z,19.64
2023-11-10T05:32:55.522Z,19.56
2023-11-10T05:33:58.598Z,19.54
2023-11-10T05:34:54.112Z,19.56
2023-11-10T05:35:49.652Z,19.63
2023-11-10T05:36:45.259Z,19.60
2023-11-10T05:37:40.766Z,19.56
2023-11-10T05:38:36.361Z,19.64
2023-11-10T05:39:31.936Z,19.57
2023-11-10T05:40:27.420Z,19.64
2023-11-10T05:41:22.967Z,19.60
2023-11-10T05:42:18.550Z,19.59
2023-11-10T05:43:14.081Z,19.59
2023-11-10T05:44:09.654Z,19.53
2023-11-10T05:45:05.176Z,19.53
2023-11-10T05:46:00.864Z,19.47
2023-11-10T05:46:56.268Z,19.56
2023-11-10T05:47:51.807Z,19.53
2023-11-10T05:48:47.430Z,19.54
2023-11-10T05:49:32.061Z,19.50
2023-11-10T05:50:27.603Z,19.60
2023-11-10T05:51:23.191Z,19.67
2023-11-10T05:52:18.673Z,19.57
2023-11-10T05:53:14.230Z,19.59
2023-11-10T05:54:10.372Z,20.22
2023-11-10T05:55:05.972Z,23.04
2023-11-10T05:56:01.510Z,25.83
2023-11-10T05:56:57.050Z,26.85
2023-11-10T05:57:52.644Z,26.12
2023-11-10T05:58:48.173Z,25.01
2023-11-10T05:59:43.711Z,24.11
2023-11-10T06:00:39.305Z,23.42
2023-11-10T06:01:34.851Z,22.81
2023-11-10T06:02:30.419Z,22.22
2023-11-10T06:03:26.054Z,22.00
2023-11-10T06:04:29.278Z,21.59
2023-11-10T06:05:17.088Z,21.41
2023-11-10T06:06:12.580Z,21.14
2023-11-10T06:07:08.100Z,20.92
2023-11-10T06:08:03.642Z,20.86
2023-11-10T06:08:59.194Z,20.60
2023-11-10T06:09:54.779Z,20.50
2023-11-10T06:10:50.337Z,20.36
2023-11-10T06:11:53.437Z,20.34
2023-11-10T06:12:41.457Z,20.29
2023-11-10T06:13:36.982Z,20.18
2023-11-10T06:14:32.601Z,20.18
2023-11-10T06:15:28.138Z,20.08
2023-11-10T06:16:23.690Z,20.08
2023-11-10T06:17:19.245Z,19.93
2023-11-10T06:18:14.786Z,19.90
2023-11-10T06:19:10.334Z,19.90
2023-11-10T06:20:05.891Z,19.82
2023-11-10T06:21:01.463Z,19.82
2023-11-10T06:21:57.046Z,19.81
2023-11-10T06:22:52.544Z,19.81
2023-11-10T06:23:48.136Z,19.82
2023-11-10T06:24:43.664Z,19.84
2023-11-10T06:25:39.221Z,19.78
2023-11-10T06:26:34.772Z,19.72
2023-11-10T06:27:30.337Z,19.74
2023-11-10T06:28:15.038Z,19.70
2023-11-10T06:29:10.543Z,19.68
2023-11-10T06:30:06.152Z,19.64
2023-11-10T06:31:01.695Z,19.70
2023-11-10T06:31:57.238Z,19.64
2023-11-10T06:33:07.837Z,19.56
2023-11-10T06:34:03.426Z,19.60
2023-11-10T06:34:58.934Z,19.63
2023-11-10T06:35:54.447Z,19.59
2023-11-10T06:36:50.053Z,19.56
2023-11-10T06:37:45.559Z,19.63
2023-11-10T06:38:41.095Z,19.67
2023-11-10T06:39:36.652Z,19.64
2023-11-10T06:40:32.233Z,19.56
2023-11-10T06:41:27.760Z,19.62
2023-11-10T06:42:23.307Z,19.60
2023-11-10T06:43:18.913Z,19.56
2023-11-10T06:44:14.447Z,19.63
2023-11-10T06:45:10.595Z,19.50
2023-11-10T06:46:06.142Z,19.56
2023-11-10T06:47:01.754Z,19.60
2023-11-10T06:47:57.198Z,19.54
2023-11-10T06:48:52.848Z,19.56
2023-11-10T06:49:37.448Z,19.56
2023-11-10T06:50:33.047Z,19.59
2023-11-10T06:51:28.513Z,19.59
2023-11-10T06:52:24.071Z,19.57
2023-11-10T06:53:19.599Z,19.56
2023-11-10T06:54:15.217Z,19.57
2023-11-10T06:55:10.700Z,19.53
2023-11-10T06:56:06.236Z,19.50
2023-11-10T06:57:01.800Z,19.49
2023-11-10T06:57:57.412Z,19.54
2023-11-10T06:58:52.894Z,19.53
2023-11-10T06:59:48.483Z,19.53
2023-11-10T07:00:44.096Z,19.45
2023-11-10T07:01:39.660Z,19.47
2023-11-10T07:02:35.142Z,19.45
2023-11-10T07:03:30.755Z,19.49
2023-11-10T07:04:26.344Z,19.47
2023-11-10T07:05:21.740Z,19.41
2023-11-10T07:06:17.317Z,19.41
2023-11-10T07:07:12.818Z,19.39
2023-11-10T07:08:08.340Z,19.39
2023-11-10T07:08:53.009Z,19.47
2023-11-10T07:09:48.580Z,19.39
2023-11-10T07:10:46.009Z,19.34
2023-11-10T07:11:39.661Z,19.37
2023-11-10T07:12:35.196Z,19.42
2023-11-10T07:13:30.763Z,19.41
2023-11-10T07:14:15.437Z,19.31
2023-11-10T07:15:10.980Z,19.41
2023-11-10T07:16:06.594Z,19.27
2023-11-10T07:17:02.076Z,19.38
2023-11-10T07:17:57.667Z,19.30
2023-11-10T07:18:53.175Z,19.38
2023-11-10T07:19:48.712Z,19.38
2023-11-10T07:20:33.374Z,19.42
2023-11-10T07:21:28.933Z,19.34
2023-11-10T07:22:24.474Z,19.30
2023-11-10T07:23:20.007Z,19.07
2023-11-10T07:24:15.549Z,19.05
2023-11-10T07:25:11.092Z,18.83
2023-11-10T07:26:06.680Z,18.63
2023-11-10T07:27:02.208Z,18.52
2023-11-10T07:28:00.376Z,18.49
2023-11-10T07:28:53.292Z,18.51
2023-11-10T07:29:48.841Z,18.36
2023-11-10T07:30:44.428Z,18.34
2023-11-10T07:31:40.013Z,18.41
2023-11-10T07:32:35.502Z,18.41
2023-11-10T07:33:31.090Z,18.42
2023-11-10T07:34:26.603Z,18.42
2023-11-10T07:35:22.161Z,19.56
2023-11-10T07:36:17.739Z,22.41
2023-11-10T07:37:13.246Z,25.77
2023-11-10T07:38:08.775Z,27.73
2023-11-10T07:39:04.355Z,26.79
2023-11-10T07:39:59.915Z,25.48
2023-11-10T07:40:55.432Z,24.22
2023-11-10T07:41:50.964Z,25.40
2023-11-10T07:42:46.545Z,28.24
2023-11-10T07:43:42.034Z,30.17
2023-11-10T07:44:37.658Z,29.96
2023-11-10T07:45:33.212Z,28.09
2023-11-10T07:46:28.828Z,26.60
2023-11-10T07:47:24.283Z,25.15
2023-11-10T07:48:19.787Z,23.98
2023-11-10T07:49:15.291Z,23.08
2023-11-10T07:50:10.830Z,22.61
2023-11-10T07:51:06.363Z,21.90
2023-11-10T07:52:01.895Z,21.45
2023-11-10T07:52:46.568Z,21.20
2023-11-10T07:53:42.148Z,20.97
2023-11-10T07:54:37.686Z,20.83
2023-11-10T07:55:33.202Z,20.74
2023-11-10T07:56:17.860Z,20.65
2023-11-10T07:57:13.402Z,20.50
2023-11-10T07:58:08.944Z,20.36
2023-11-10T07:59:04.491Z,20.29
2023-11-10T08:00:00.044Z,20.17
2023-11-10T08:00:55.607Z,20.14
2023-11-10T08:01:40.245Z,20.02
2023-11-10T08:02:35.826Z,20.04
2023-11-10T08:03:31.371Z,19.92
2023-11-10T08:04:16.031Z,19.81
2023-11-10T08:05:11.539Z,19.81
2023-11-10T08:06:07.039Z,19.79
2023-11-10T08:07:02.624Z,19.72
2023-11-10T08:07:58.172Z,19.70
2023-11-10T08:08:53.727Z,19.72
2023-11-10T08:09:49.298Z,19.75
2023-11-10T08:10:44.802Z,19.77
2023-11-10T08:11:49.963Z,19.74
2023-11-10T08:12:35.938Z,19.72
2023-11-10T08:13:31.444Z,19.75
2023-11-10T08:14:27.001Z,19.71
2023-11-10T08:15:11.735Z,19.77
2023-11-10T08:16:07.256Z,19.71
2023-11-10T08:17:02.789Z,19.70
2023-11-10T08:17:58.360Z,19.64
2023-11-10T08:18:53.915Z,19.64
2023-11-10T08:19:49.441Z,19.63
2023-11-10T08:20:45.000Z,19.70
2023-11-10T08:21:41.200Z,19.64
2023-11-10T08:22:36.079Z,19.63
2023-11-10T08:23:20.747Z,19.57
2023-11-10T08:24:16.274Z,19.57
2023-11-10T08:25:11.823Z,19.70
2023-11-10T08:26:07.371Z,19.59
2023-11-10T08:27:02.967Z,19.63
2023-11-10T08:27:58.507Z,19.67
2023-11-10T08:28:54.042Z,19.68
2023-11-10T08:29:49.602Z,19.70
2023-11-10T08:30:34.298Z,19.67
2023-11-10T08:31:18.954Z,19.71
2023-11-10T08:32:14.504Z,19.59
2023-11-10T08:33:10.092Z,19.57
2023-11-10T08:34:05.683Z,19.63
2023-11-10T08:35:01.139Z,19.64
2023-11-10T08:35:56.691Z,19.60
2023-11-10T08:36:41.477Z,19.64
2023-11-10T08:37:36.917Z,19.60
2023-11-10T08:38:21.579Z,19.57
2023-11-10T08:39:17.176Z,19.68
2023-11-10T08:40:12.771Z,19.52
2023-11-10T08:40:57.826Z,19.62
2023-11-10T08:41:53.370Z,19.60
2023-11-10T08:42:49.036Z,19.52
2023-11-10T08:43:44.581Z,19.57
2023-11-10T08:44:29.183Z,19.57
2023-11-10T08:45:24.767Z,19.54
2023-11-10T08:46:20.387Z,19.50
2023-11-10T08:47:15.847Z,19.53
2023-11-10T08:48:11.434Z,19.60
2023-11-10T08:49:07.055Z,19.53
2023-11-10T08:50:02.504Z,19.57
2023-11-10T08:50:47.174Z,19.52
2023-11-10T08:51:42.722Z,19.47
2023-11-10T08:52:27.362Z,19.49
2023-11-10T08:53:12.059Z,19.47
2023-11-10T08:54:07.615Z,19.49
2023-11-10T08:54:52.305Z,19.56
2023-11-10T08:55:47.867Z,19.56
2023-11-10T08:56:43.413Z,19.45
2023-11-10T08:57:28.117Z,19.42
2023-11-10T08:58:23.634Z,19.44
2023-11-10T08:59:08.298Z,19.44
2023-11-10T09:00:03.845Z,19.41
2023-11-10T09:00:59.492Z,19.49
2023-11-10T09:01:44.084Z,19.47
2023-11-10T09:02:28.782Z,19.47
2023-11-10T09:03:24.369Z,19.49
2023-11-10T09:04:18.225Z,19.45
2023-11-10T09:05:04.542Z,19.50
2023-11-10T09:06:00.045Z,19.56
2023-11-10T09:06:44.730Z,19.54
2023-11-10T09:07:40.220Z,19.59
2023-11-10T09:08:35.780Z,19.50
2023-11-10T09:09:20.426Z,19.54
2023-11-10T09:10:15.974Z,19.56
2023-11-10T09:11:11.535Z,19.54
2023-11-10T09:12:07.069Z,19.53
2023-11-10T09:12:51.784Z,19.52
2023-11-10T09:13:48.950Z,19.52
2023-11-10T09:14:42.872Z,19.56
2023-11-10T09:15:38.460Z,19.52
2023-11-10T09:16:23.151Z,19.50
2023-11-10T09:17:18.690Z,19.44
2023-11-10T09:18:14.190Z,19.41
2023-11-10T09:19:09.737Z,19.45
2023-11-10T09:20:06.957Z,19.45
2023-11-10T09:21:00.880Z,19.44
2023-11-10T09:21:45.542Z,19.45
2023-11-10T09:22:41.090Z,19.47
2023-11-10T09:23:25.741Z,19.42
2023-11-10T09:24:21.470Z,19.50
2023-11-10T09:25:16.940Z,19.47
2023-11-10T09:26:12.419Z,19.41
2023-11-10T09:27:07.979Z,19.45
2023-11-10T09:28:06.077Z,19.52
2023-11-10T09:28:59.064Z,19.49
2023-11-10T09:29:43.755Z,19.45
2023-11-10T09:30:39.315Z,19.47
2023-11-10T09:31:24.003Z,19.41
2023-11-10T09:32:19.506Z,19.41
2023-11-10T09:33:15.127Z,19.39
2023-11-10T09:34:01.196Z,19.44
2023-11-10T09:34:55.339Z,19.47
2023-11-10T09:35:40.014Z,19.45
2023-11-10T09:36:35.669Z,19.39
2023-11-10T09:37:31.131Z,19.47
2023-11-10T09:38:26.669Z,19.42
2023-11-10T09:39:22.266Z,19.45
2023-11-10T09:40:17.801Z,19.44
2023-11-10T09:41:13.323Z,19.42
2023-11-10T09:42:08.860Z,19.42
2023-11-10T09:43:04.482Z,19.42
2023-11-10T09:43:59.939Z,19.39
2023-11-10T09:44:55.480Z,19.41
2023-11-10T09:45:40.198Z,19.34
2023-11-10T09:46:35.751Z,19.44
2023-11-10T09:47:20.378Z,19.37
2023-11-10T09:48:06.133Z,19.42
2023-11-10T09:49:01.639Z,19.42
2023-11-10T09:49:57.180Z,19.44
2023-11-10T09:50:52.790Z,19.35
2023-11-10T09:51:37.466Z,19.37
2023-11-10T09:52:33.003Z,19.24
2023-11-10T09:53:28.569Z,19.27
2023-11-10T09:54:13.222Z,19.30
2023-11-10T09:54:57.932Z,19.37
2023-11-10T09:55:53.435Z,19.34
2023-11-10T09:56:38.106Z,19.35
2023-11-10T09:57:33.706Z,19.23
2023-11-10T09:58:18.362Z,19.27
2023-11-10T09:59:13.926Z,19.34
2023-11-10T10:00:09.476Z,19.34
2023-11-10T10:01:05.097Z,19.26
2023-11-10T10:02:00.607Z,19.27
2023-11-10T10:02:56.197Z,19.31
2023-11-10T10:03:40.859Z,19.26
2023-11-10T10:04:36.402Z,19.30
2023-11-10T10:05:31.876Z,19.23
2023-11-10T10:06:27.457Z,19.32
2023-11-10T10:07:12.122Z,19.27
2023-11-10T10:07:56.772Z,19.26
2023-11-10T10:08:41.430Z,19.30
2023-11-10T10:09:37.003Z,19.31
2023-11-10T10:10:21.678Z,19.32
2023-11-10T10:11:06.368Z,19.34
2023-11-10T10:12:01.949Z,19.30
2023-11-10T10:12:57.538Z,19.34
2023-11-10T10:13:53.056Z,19.30
2023-11-10T10:14:37.729Z,19.26
2023-11-10T10:15:33.342Z,19.31
2023-11-10T10:16:28.893Z,19.26
2023-11-10T10:17:24.416Z,19.37
2023-11-10T10:18:19.949Z,19.31
2023-11-10T10:19:15.496Z,19.31
2023-11-10T10:20:00.171Z,19.32
2023-11-10T10:20:55.708Z,19.24
2023-11-10T10:21:40.390Z,19.27
2023-11-10T10:22:35.941Z,19.31
2023-11-10T10:23:20.596Z,19.26
2023-11-10T10:24:16.126Z,19.32
2023-11-10T10:25:00.813Z,19.32
2023-11-10T10:25:56.438Z,19.26
2023-11-10T10:26:41.027Z,19.26
2023-11-10T10:27:36.595Z,19.39
2023-11-10T10:28:32.135Z,19.30
2023-11-10T10:29:31.813Z,19.32
2023-11-10T10:30:27.499Z,19.38
2023-11-10T10:31:23.036Z,19.24
2023-11-10T10:32:18.484Z,19.32
2023-11-10T10:33:14.138Z,19.24
2023-11-10T10:34:09.700Z,19.32
2023-11-10T10:35:05.177Z,19.32
2023-11-10T10:36:00.717Z,19.30
2023-11-10T10:36:45.391Z,19.31
2023-11-10T10:37:40.956Z,19.32
2023-11-10T10:38:36.473Z,19.31
2023-11-10T10:39:32.038Z,19.27
2023-11-10T10:40:27.543Z,19.30
2023-11-10T10:41:23.088Z,19.26
2023-11-10T10:42:18.620Z,19.23
2023-11-10T10:43:14.180Z,19.27
2023-11-10T10:44:10.890Z,19.30
2023-11-10T10:45:05.284Z,19.12
2023-11-10T10:46:00.870Z,19.20
2023-11-10T10:46:45.597Z,19.26
2023-11-10T10:47:41.086Z,19.16
2023-11-10T10:48:36.638Z,19.20
2023-11-10T10:49:21.283Z,19.27
2023-11-10T10:50:16.822Z,19.27
2023-11-10T10:51:01.496Z,19.27
2023-11-10T10:51:46.172Z,19.27
2023-11-10T10:52:41.718Z,19.30
2023-11-10T10:53:37.276Z,19.26
2023-11-10T10:54:32.833Z,19.27
2023-11-10T10:55:28.343Z,19.26
2023-11-10T10:56:34.419Z,19.23
2023-11-10T10:57:20.910Z,19.15
2023-11-10T10:58:04.098Z,19.30
2023-11-10T10:58:48.793Z,19.26
2023-11-10T10:59:44.326Z,19.16
2023-11-10T11:00:39.950Z,19.20
2023-11-10T11:01:35.449Z,19.19
2023-11-10T11:02:30.980Z,19.17
2023-11-10T11:03:26.714Z,19.27
2023-11-10T11:04:11.248Z,19.16
2023-11-10T11:05:06.734Z,19.17
2023-11-10T11:05:51.412Z,19.17
2023-11-10T11:06:46.990Z,19.19
2023-11-10T11:07:42.482Z,19.20
2023-11-10T11:08:38.011Z,19.24
2023-11-10T11:09:33.667Z,19.13
2023-11-10T11:10:30.146Z,19.24
2023-11-10T11:11:25.686Z,19.12
2023-11-10T11:12:21.226Z,19.19
2023-11-10T11:13:16.894Z,19.26
2023-11-10T11:14:12.328Z,19.23
2023-11-10T11:15:07.910Z,19.26
2023-11-10T11:15:52.612Z,19.19
2023-11-10T11:16:48.146Z,19.23
2023-11-10T11:17:43.693Z,19.23
2023-11-10T11:18:39.274Z,19.17
2023-11-10T11:19:34.800Z,19.22
2023-11-10T11:20:30.300Z,19.23
2023-11-10T11:21:25.852Z,19.20
2023-11-10T11:22:21.372Z,19.17
2023-11-10T11:23:06.058Z,19.24
2023-11-10T11:23:50.714Z,19.20
2023-11-10T11:24:46.372Z,19.24
2023-11-10T11:25:30.926Z,19.26
2023-11-10T11:26:26.480Z,19.16
2023-11-10T11:27:24.451Z,19.20
2023-11-10T11:28:17.556Z,19.22
2023-11-10T11:29:13.116Z,19.19
2023-11-10T11:29:57.802Z,19.24
2023-11-10T11:30:42.521Z,19.20
2023-11-10T11:31:38.003Z,19.19
2023-11-10T11:32:33.598Z,19.16
2023-11-10T11:33:29.104Z,19.16
2023-11-10T11:34:24.606Z,19.26
2023-11-10T11:35:20.138Z,19.23
2023-11-10T11:36:04.838Z,19.23
2023-11-10T11:37:00.427Z,19.27
2023-11-10T11:37:55.913Z,19.35
2023-11-10T11:38:51.465Z,19.31
2023-11-10T11:39:47.123Z,19.31
2023-11-10T11:40:31.702Z,19.42